sensor_id;sensor_type;location;lat;lon;timestamp;pressure;altitude;pressure_sealevel;temperature;humidity
7200;BME280;3641;49.082;8.200;2023-03-01T00:01:26;101289.00;;;0.78;61.06
7200;BME280;3641;49.082;8.200;2023-03-01T00:03:54;101278.38;;;0.76;60.03
7200;BME280;3641;49.082;8.200;2023-03-01T00:06:20;101288.81;;;0.81;61.22
7200;BME280;3641;49.082;8.200;2023-03-01T00:08:47;101288.25;;;0.76;61.07
7200;BME280;3641;49.082;8.200;2023-03-01T00:11:16;101285.78;;;0.72;62.34
7200;BME280;3641;49.082;8.200;2023-03-01T00:13:45;101288.22;;;0.90;60.34
7200;BME280;3641;49.082;8.200;2023-03-01T00:16:16;101282.53;;;0.67;61.64
7200;BME280;3641;49.082;8.200;2023-03-01T00:18:44;101277.91;;;0.55;62.03
7200;BME280;3641;49.082;8.200;2023-03-01T00:21:11;101281.47;;;0.41;62.96
7200;BME280;3641;49.082;8.200;2023-03-01T00:23:38;101276.25;;;0.81;59.94
7200;BME280;3641;49.082;8.200;2023-03-01T00:26:06;101284.19;;;0.83;59.73
7200;BME280;3641;49.082;8.200;2023-03-01T00:28:33;101281.06;;;0.62;62.54
7200;BME280;3641;49.082;8.200;2023-03-01T00:31:03;101283.34;;;0.82;58.92
7200;BME280;3641;49.082;8.200;2023-03-01T00:33:29;101281.72;;;0.80;59.83
7200;BME280;3641;49.082;8.200;2023-03-01T00:35:59;101283.00;;;0.60;61.01
7200;BME280;3641;49.082;8.200;2023-03-01T00:38:25;101287.63;;;0.58;61.97
7200;BME280;3641;49.082;8.200;2023-03-01T00:40:52;101281.09;;;0.33;62.53
7200;BME280;3641;49.082;8.200;2023-03-01T00:43:19;101287.81;;;0.11;64.69
7200;BME280;3641;49.082;8.200;2023-03-01T00:45:45;101282.53;;;0.53;61.00
7200;BME280;3641;49.082;8.200;2023-03-01T00:48:13;101275.06;;;0.44;63.26
7200;BME280;3641;49.082;8.200;2023-03-01T00:50:39;101281.94;;;0.48;60.90
7200;BME280;3641;49.082;8.200;2023-03-01T00:53:07;101282.44;;;0.40;62.76
7200;BME280;3641;49.082;8.200;2023-03-01T00:55:33;101284.63;;;0.33;62.93
7200;BME280;3641;49.082;8.200;2023-03-01T00:58:02;101284.06;;;0.57;62.58
7200;BME280;3641;49.082;8.200;2023-03-01T01:00:28;101286.94;;;0.25;64.57
7200;BME280;3641;49.082;8.200;2023-03-01T01:02:54;101290.00;;;0.19;63.99
7200;BME280;3641;49.082;8.200;2023-03-01T01:05:21;101286.66;;;0.15;64.23
7200;BME280;3641;49.082;8.200;2023-03-01T01:07:48;101291.94;;;0.46;62.45
7200;BME280;3641;49.082;8.200;2023-03-01T01:10:16;101285.03;;;0.13;64.25
7200;BME280;3641;49.082;8.200;2023-03-01T01:12:44;101298.56;;;0.11;64.19
7200;BME280;3641;49.082;8.200;2023-03-01T01:15:10;101290.97;;;0.47;60.80
7200;BME280;3641;49.082;8.200;2023-03-01T01:17:38;101286.66;;;0.15;63.85
7200;BME280;3641;49.082;8.200;2023-03-01T01:20:06;101280.34;;;0.16;64.63
7200;BME280;3641;49.082;8.200;2023-03-01T01:22:33;101289.25;;;0.31;62.09
7200;BME280;3641;49.082;8.200;2023-03-01T01:25:00;101282.81;;;0.05;64.35
7200;BME280;3641;49.082;8.200;2023-03-01T01:27:29;101282.56;;;0.24;62.35
7200;BME280;3641;49.082;8.200;2023-03-01T01:29:55;101269.41;;;0.20;64.53
7200;BME280;3641;49.082;8.200;2023-03-01T01:32:22;101257.41;;;0.25;63.03
7200;BME280;3641;49.082;8.200;2023-03-01T01:34:48;101256.25;;;0.01;64.71
7200;BME280;3641;49.082;8.200;2023-03-01T01:37:15;101251.28;;;-0.06;65.59
7200;BME280;3641;49.082;8.200;2023-03-01T01:39:41;101258.47;;;0.08;64.40
7200;BME280;3641;49.082;8.200;2023-03-01T01:42:12;101250.72;;;0.18;64.42
7200;BME280;3641;49.082;8.200;2023-03-01T01:44:45;101254.13;;;-0.09;64.89
7200;BME280;3641;49.082;8.200;2023-03-01T01:47:14;101254.91;;;0.08;64.89
7200;BME280;3641;49.082;8.200;2023-03-01T01:49:46;101247.38;;;0.14;63.94
7200;BME280;3641;49.082;8.200;2023-03-01T01:52:16;101254.06;;;0.36;60.72
7200;BME280;3641;49.082;8.200;2023-03-01T01:54:46;101248.88;;;0.33;60.01
7200;BME280;3641;49.082;8.200;2023-03-01T01:57:18;101249.34;;;0.25;61.66
7200;BME280;3641;49.082;8.200;2023-03-01T01:59:49;101240.34;;;0.26;61.58
7200;BME280;3641;49.082;8.200;2023-03-01T02:02:17;101234.13;;;0.11;64.00
7200;BME280;3641;49.082;8.200;2023-03-01T02:04:45;101236.50;;;-0.13;65.53
7200;BME280;3641;49.082;8.200;2023-03-01T02:07:14;101234.13;;;0.26;60.46
7200;BME280;3641;49.082;8.200;2023-03-01T02:09:45;101220.97;;;0.21;61.36
7200;BME280;3641;49.082;8.200;2023-03-01T02:12:12;101227.78;;;0.27;60.41
7200;BME280;3641;49.082;8.200;2023-03-01T02:14:39;101218.88;;;0.12;62.96
7200;BME280;3641;49.082;8.200;2023-03-01T02:17:07;101218.31;;;0.07;63.84
7200;BME280;3641;49.082;8.200;2023-03-01T02:19:44;101216.84;;;0.30;60.72
7200;BME280;3641;49.082;8.200;2023-03-01T02:22:20;101211.28;;;-0.10;65.76
7200;BME280;3641;49.082;8.200;2023-03-01T02:24:57;101212.03;;;0.21;61.07
7200;BME280;3641;49.082;8.200;2023-03-01T02:27:32;101207.38;;;0.10;64.01
7200;BME280;3641;49.082;8.200;2023-03-01T02:30:01;101200.38;;;-0.07;66.04
7200;BME280;3641;49.082;8.200;2023-03-01T02:32:27;101199.63;;;-0.09;66.02
7200;BME280;3641;49.082;8.200;2023-03-01T02:34:55;101198.34;;;-0.04;63.31
7200;BME280;3641;49.082;8.200;2023-03-01T02:37:23;101192.13;;;-0.04;65.18
7200;BME280;3641;49.082;8.200;2023-03-01T02:39:54;101186.84;;;-0.06;63.84
7200;BME280;3641;49.082;8.200;2023-03-01T02:42:27;101186.38;;;0.02;64.50
7200;BME280;3641;49.082;8.200;2023-03-01T02:44:56;101182.16;;;-0.16;65.55
7200;BME280;3641;49.082;8.200;2023-03-01T02:47:24;101188.00;;;-0.10;63.74
7200;BME280;3641;49.082;8.200;2023-03-01T02:49:50;101179.00;;;0.06;62.32
7200;BME280;3641;49.082;8.200;2023-03-01T02:52:27;101176.22;;;-0.07;63.71
7200;BME280;3641;49.082;8.200;2023-03-01T02:54:59;101182.16;;;0.12;62.39
7200;BME280;3641;49.082;8.200;2023-03-01T02:57:28;101180.03;;;0.03;61.44
7200;BME280;3641;49.082;8.200;2023-03-01T02:59:57;101186.75;;;-0.04;62.92
7200;BME280;3641;49.082;8.200;2023-03-01T03:02:28;101188.19;;;0.02;62.16
7200;BME280;3641;49.082;8.200;2023-03-01T03:05:05;101181.38;;;-0.33;66.49
7200;BME280;3641;49.082;8.200;2023-03-01T03:07:33;101177.75;;;-0.03;62.01
7200;BME280;3641;49.082;8.200;2023-03-01T03:10:01;101175.91;;;-0.46;66.47
7200;BME280;3641;49.082;8.200;2023-03-01T03:12:27;101171.91;;;-0.24;65.12
7200;BME280;3641;49.082;8.200;2023-03-01T03:14:54;101170.66;;;-0.19;64.55
7200;BME280;3641;49.082;8.200;2023-03-01T03:17:20;101165.75;;;0.03;62.83
7200;BME280;3641;49.082;8.200;2023-03-01T03:19:48;101164.53;;;-0.35;67.20
7200;BME280;3641;49.082;8.200;2023-03-01T03:22:15;101163.84;;;-0.39;66.96
7200;BME280;3641;49.082;8.200;2023-03-01T03:24:41;101162.69;;;-0.34;66.84
7200;BME280;3641;49.082;8.200;2023-03-01T03:27:08;101161.06;;;-0.37;64.92
7200;BME280;3641;49.082;8.200;2023-03-01T03:29:34;101157.91;;;-0.29;65.15
7200;BME280;3641;49.082;8.200;2023-03-01T03:32:01;101162.91;;;-0.23;63.19
7200;BME280;3641;49.082;8.200;2023-03-01T03:34:28;101162.63;;;-0.19;63.99
7200;BME280;3641;49.082;8.200;2023-03-01T03:36:56;101159.94;;;-0.04;61.48
7200;BME280;3641;49.082;8.200;2023-03-01T03:39:24;101158.09;;;-0.04;61.33
7200;BME280;3641;49.082;8.200;2023-03-01T03:41:51;101159.19;;;-0.21;62.98
7200;BME280;3641;49.082;8.200;2023-03-01T03:44:17;101147.47;;;-0.34;66.80
7200;BME280;3641;49.082;8.200;2023-03-01T03:46:44;101131.19;;;-0.31;67.46
7200;BME280;3641;49.082;8.200;2023-03-01T03:49:10;101141.81;;;-0.29;66.80
7200;BME280;3641;49.082;8.200;2023-03-01T03:51:36;101143.94;;;-0.20;65.78
7200;BME280;3641;49.082;8.200;2023-03-01T03:54:04;101151.31;;;-0.38;67.28
7200;BME280;3641;49.082;8.200;2023-03-01T03:56:31;101146.31;;;-0.30;65.94
7200;BME280;3641;49.082;8.200;2023-03-01T03:58:57;101134.34;;;-0.24;64.03
7200;BME280;3641;49.082;8.200;2023-03-01T04:01:24;101139.88;;;-0.27;63.96
7200;BME280;3641;49.082;8.200;2023-03-01T04:03:50;101132.72;;;-0.41;65.16
7200;BME280;3641;49.082;8.200;2023-03-01T04:06:19;101127.34;;;-0.41;65.54
7200;BME280;3641;49.082;8.200;2023-03-01T04:08:46;101130.69;;;-0.23;63.28
7200;BME280;3641;49.082;8.200;2023-03-01T04:11:17;101132.34;;;-0.49;67.85
7200;BME280;3641;49.082;8.200;2023-03-01T04:13:54;101130.78;;;-0.39;64.93
7200;BME280;3641;49.082;8.200;2023-03-01T04:16:21;101127.25;;;-0.25;65.95
7200;BME280;3641;49.082;8.200;2023-03-01T04:18:48;101128.28;;;-0.13;62.87
7200;BME280;3641;49.082;8.200;2023-03-01T04:21:15;101127.06;;;-0.37;65.58
7200;BME280;3641;49.082;8.200;2023-03-01T04:23:42;101125.81;;;-0.45;66.44
7200;BME280;3641;49.082;8.200;2023-03-01T04:26:09;101126.09;;;-0.21;63.37
7200;BME280;3641;49.082;8.200;2023-03-01T04:28:38;101125.81;;;-0.31;63.04
7200;BME280;3641;49.082;8.200;2023-03-01T04:31:09;101126.16;;;-0.66;67.79
7200;BME280;3641;49.082;8.200;2023-03-01T04:33:39;101129.75;;;-0.51;67.17
7200;BME280;3641;49.082;8.200;2023-03-01T04:36:07;101116.72;;;-0.28;64.03
7200;BME280;3641;49.082;8.200;2023-03-01T04:38:35;101123.69;;;-0.40;67.53
7200;BME280;3641;49.082;8.200;2023-03-01T04:41:03;101118.84;;;-0.33;65.60
7200;BME280;3641;49.082;8.200;2023-03-01T04:43:29;101116.25;;;-0.49;67.11
7200;BME280;3641;49.082;8.200;2023-03-01T04:46:01;101119.97;;;-0.38;64.29
7200;BME280;3641;49.082;8.200;2023-03-01T04:48:28;101113.66;;;-0.22;63.02
7200;BME280;3641;49.082;8.200;2023-03-01T04:50:55;101123.59;;;-0.24;62.49
7200;BME280;3641;49.082;8.200;2023-03-01T04:53:21;101121.28;;;-0.45;66.60
7200;BME280;3641;49.082;8.200;2023-03-01T04:55:48;101128.56;;;-0.61;67.98
7200;BME280;3641;49.082;8.200;2023-03-01T04:58:14;101130.78;;;-0.68;68.97
7200;BME280;3641;49.082;8.200;2023-03-01T05:00:41;101120.16;;;-0.41;65.86
7200;BME280;3641;49.082;8.200;2023-03-01T05:03:09;101127.94;;;-0.36;66.18
7200;BME280;3641;49.082;8.200;2023-03-01T05:05:37;101128.56;;;-0.76;68.76
7200;BME280;3641;49.082;8.200;2023-03-01T05:08:05;101128.00;;;-0.52;66.78
7200;BME280;3641;49.082;8.200;2023-03-01T05:10:34;101124.47;;;-0.52;68.36
7200;BME280;3641;49.082;8.200;2023-03-01T05:13:02;101122.38;;;-0.33;66.24
7200;BME280;3641;49.082;8.200;2023-03-01T05:15:31;101128.22;;;-0.26;63.97
7200;BME280;3641;49.082;8.200;2023-03-01T05:17:59;101134.63;;;-0.43;67.60
7200;BME280;3641;49.082;8.200;2023-03-01T05:20:27;101128.75;;;-0.64;67.17
7200;BME280;3641;49.082;8.200;2023-03-01T05:22:55;101126.75;;;-0.46;67.21
7200;BME280;3641;49.082;8.200;2023-03-01T05:25:23;101133.56;;;-0.41;64.55
7200;BME280;3641;49.082;8.200;2023-03-01T05:27:50;101140.84;;;-0.57;67.59
7200;BME280;3641;49.082;8.200;2023-03-01T05:30:17;101132.91;;;-0.44;64.48
7200;BME280;3641;49.082;8.200;2023-03-01T05:32:45;101126.66;;;-0.45;64.83
7200;BME280;3641;49.082;8.200;2023-03-01T05:35:13;101130.97;;;-0.57;66.03
7200;BME280;3641;49.082;8.200;2023-03-01T05:37:43;101128.97;;;-0.53;64.68
7200;BME280;3641;49.082;8.200;2023-03-01T05:40:12;101123.03;;;-0.44;64.10
7200;BME280;3641;49.082;8.200;2023-03-01T05:42:43;101128.19;;;-0.55;65.76
7200;BME280;3641;49.082;8.200;2023-03-01T05:45:10;101130.78;;;-0.39;64.32
7200;BME280;3641;49.082;8.200;2023-03-01T05:47:37;101123.69;;;-0.55;65.52
7200;BME280;3641;49.082;8.200;2023-03-01T05:50:05;101136.31;;;-0.71;69.26
7200;BME280;3641;49.082;8.200;2023-03-01T05:52:32;101127.25;;;-0.54;65.64
7200;BME280;3641;49.082;8.200;2023-03-01T05:55:00;101123.31;;;-0.63;67.20
7200;BME280;3641;49.082;8.200;2023-03-01T05:57:28;101116.25;;;-0.64;68.67
7200;BME280;3641;49.082;8.200;2023-03-01T05:59:54;101120.63;;;-0.48;63.50
7200;BME280;3641;49.082;8.200;2023-03-01T06:02:20;101119.97;;;-0.52;64.22
7200;BME280;3641;49.082;8.200;2023-03-01T06:04:47;101120.63;;;-0.63;65.85
7200;BME280;3641;49.082;8.200;2023-03-01T06:07:13;101119.59;;;-0.60;65.15
7200;BME280;3641;49.082;8.200;2023-03-01T06:09:40;101118.19;;;-0.82;66.38
7200;BME280;3641;49.082;8.200;2023-03-01T06:12:08;101122.06;;;-0.71;66.32
7200;BME280;3641;49.082;8.200;2023-03-01T06:14:34;101117.44;;;-0.84;66.81
7200;BME280;3641;49.082;8.200;2023-03-01T06:17:00;101119.75;;;-0.78;66.40
7200;BME280;3641;49.082;8.200;2023-03-01T06:19:27;101123.72;;;-0.99;69.56
7200;BME280;3641;49.082;8.200;2023-03-01T06:21:54;101124.44;;;-0.81;66.56
7200;BME280;3641;49.082;8.200;2023-03-01T06:24:21;101125.69;;;-0.73;64.92
7200;BME280;3641;49.082;8.200;2023-03-01T06:26:48;101123.09;;;-0.74;65.97
7200;BME280;3641;49.082;8.200;2023-03-01T06:29:15;101126.53;;;-0.72;67.94
7200;BME280;3641;49.082;8.200;2023-03-01T06:31:42;101131.22;;;-0.76;68.67
7200;BME280;3641;49.082;8.200;2023-03-01T06:34:09;101132.09;;;-0.75;68.38
7200;BME280;3641;49.082;8.200;2023-03-01T06:36:38;101124.34;;;-0.80;68.75
7200;BME280;3641;49.082;8.200;2023-03-01T06:39:05;101122.91;;;-0.71;69.13
7200;BME280;3641;49.082;8.200;2023-03-01T06:41:32;101120.69;;;-0.79;69.15
7200;BME280;3641;49.082;8.200;2023-03-01T06:43:59;101117.94;;;-0.63;66.68
7200;BME280;3641;49.082;8.200;2023-03-01T06:46:27;101115.06;;;-0.60;67.47
7200;BME280;3641;49.082;8.200;2023-03-01T06:48:53;101116.22;;;-0.78;69.57
7200;BME280;3641;49.082;8.200;2023-03-01T06:51:20;101108.66;;;-0.57;64.83
7200;BME280;3641;49.082;8.200;2023-03-01T06:53:46;101110.78;;;-0.62;66.90
7200;BME280;3641;49.082;8.200;2023-03-01T06:56:13;101115.25;;;-0.63;65.75
7200;BME280;3641;49.082;8.200;2023-03-01T06:58:39;101109.91;;;-0.48;64.59
7200;BME280;3641;49.082;8.200;2023-03-01T07:01:07;101110.00;;;-0.50;64.57
7200;BME280;3641;49.082;8.200;2023-03-01T07:03:35;101110.38;;;-0.56;67.77
7200;BME280;3641;49.082;8.200;2023-03-01T07:06:01;101105.44;;;-0.48;67.28
7200;BME280;3641;49.082;8.200;2023-03-01T07:08:28;101106.94;;;-0.44;66.67
7200;BME280;3641;49.082;8.200;2023-03-01T07:10:55;101105.31;;;-0.46;67.20
7200;BME280;3641;49.082;8.200;2023-03-01T07:13:21;101106.94;;;-0.44;66.54
7200;BME280;3641;49.082;8.200;2023-03-01T07:15:48;101107.41;;;-0.51;69.75
7200;BME280;3641;49.082;8.200;2023-03-01T07:18:14;101105.34;;;-0.32;66.82
7200;BME280;3641;49.082;8.200;2023-03-01T07:20:42;101107.59;;;-0.26;67.80
7200;BME280;3641;49.082;8.200;2023-03-01T07:23:09;101100.81;;;-0.31;69.34
7200;BME280;3641;49.082;8.200;2023-03-01T07:25:35;101092.38;;;-0.25;68.88
7200;BME280;3641;49.082;8.200;2023-03-01T07:28:02;101101.75;;;-0.18;69.51
7200;BME280;3641;49.082;8.200;2023-03-01T07:30:28;101102.03;;;-0.23;70.37
7200;BME280;3641;49.082;8.200;2023-03-01T07:32:56;101099.97;;;-0.17;70.11
7200;BME280;3641;49.082;8.200;2023-03-01T07:35:25;101095.72;;;-0.22;68.81
7200;BME280;3641;49.082;8.200;2023-03-01T07:37:53;101088.50;;;-0.07;68.28
7200;BME280;3641;49.082;8.200;2023-03-01T07:40:20;101095.06;;;-0.11;69.78
7200;BME280;3641;49.082;8.200;2023-03-01T07:42:46;101094.75;;;-0.06;69.06
7200;BME280;3641;49.082;8.200;2023-03-01T07:45:13;101089.47;;;0.07;66.85
7200;BME280;3641;49.082;8.200;2023-03-01T07:47:39;101077.59;;;-0.04;69.33
7200;BME280;3641;49.082;8.200;2023-03-01T07:50:07;101078.91;;;0.04;69.48
7200;BME280;3641;49.082;8.200;2023-03-01T07:52:34;101077.72;;;0.22;66.50
7200;BME280;3641;49.082;8.200;2023-03-01T07:55:01;101080.19;;;0.25;67.18
7200;BME280;3641;49.082;8.200;2023-03-01T07:57:28;101080.44;;;0.35;65.22
7200;BME280;3641;49.082;8.200;2023-03-01T07:59:54;101087.34;;;0.39;66.76
7200;BME280;3641;49.082;8.200;2023-03-01T08:02:21;101078.75;;;0.34;66.53
7200;BME280;3641;49.082;8.200;2023-03-01T08:04:47;101070.59;;;0.35;66.73
7200;BME280;3641;49.082;8.200;2023-03-01T08:07:14;101077.09;;;0.59;64.24
7200;BME280;3641;49.082;8.200;2023-03-01T08:09:40;101074.31;;;0.60;64.57
7200;BME280;3641;49.082;8.200;2023-03-01T08:12:08;101074.78;;;0.40;65.78
7200;BME280;3641;49.082;8.200;2023-03-01T08:14:35;101074.22;;;0.62;64.26
7200;BME280;3641;49.082;8.200;2023-03-01T08:17:01;101065.75;;;0.81;63.18
7200;BME280;3641;49.082;8.200;2023-03-01T08:19:29;101069.59;;;0.64;64.34
7200;BME280;3641;49.082;8.200;2023-03-01T08:21:56;101067.69;;;0.66;64.99
7200;BME280;3641;49.082;8.200;2023-03-01T08:24:23;101057.69;;;0.81;63.98
7200;BME280;3641;49.082;8.200;2023-03-01T08:26:50;101059.13;;;0.86;63.29
7200;BME280;3641;49.082;8.200;2023-03-01T08:29:18;101064.28;;;0.89;64.00
7200;BME280;3641;49.082;8.200;2023-03-01T08:31:44;101048.38;;;0.99;62.73
7200;BME280;3641;49.082;8.200;2023-03-01T08:34:13;101050.97;;;1.01;63.56
7200;BME280;3641;49.082;8.200;2023-03-01T08:36:41;101042.34;;;1.08;63.04
7200;BME280;3641;49.082;8.200;2023-03-01T08:39:09;101043.97;;;0.98;64.58
7200;BME280;3641;49.082;8.200;2023-03-01T08:41:36;101032.56;;;1.07;63.06
7200;BME280;3641;49.082;8.200;2023-03-01T08:44:03;101033.22;;;1.11;62.50
7200;BME280;3641;49.082;8.200;2023-03-01T08:46:33;101031.06;;;1.16;63.26
7200;BME280;3641;49.082;8.200;2023-03-01T08:49:03;101042.13;;;1.24;62.70
7200;BME280;3641;49.082;8.200;2023-03-01T08:51:30;101030.63;;;1.22;62.64
7200;BME280;3641;49.082;8.200;2023-03-01T08:53:57;101033.31;;;1.22;63.34
7200;BME280;3641;49.082;8.200;2023-03-01T08:56:24;101027.09;;;1.22;63.13
7200;BME280;3641;49.082;8.200;2023-03-01T08:58:50;101033.97;;;1.39;62.01
7200;BME280;3641;49.082;8.200;2023-03-01T09:01:18;101029.34;;;1.41;62.58
7200;BME280;3641;49.082;8.200;2023-03-01T09:03:46;101017.16;;;1.48;62.43
7200;BME280;3641;49.082;8.200;2023-03-01T09:06:13;101024.69;;;1.43;62.78
7200;BME280;3641;49.082;8.200;2023-03-01T09:08:41;101030.81;;;1.45;62.31
7200;BME280;3641;49.082;8.200;2023-03-01T09:11:10;101020.94;;;1.45;62.93
7200;BME280;3641;49.082;8.200;2023-03-01T09:13:37;101012.53;;;1.63;62.53
7200;BME280;3641;49.082;8.200;2023-03-01T09:16:05;101014.53;;;1.59;61.54
7200;BME280;3641;49.082;8.200;2023-03-01T09:18:33;101007.22;;;1.74;62.10
7200;BME280;3641;49.082;8.200;2023-03-01T09:21:05;101009.56;;;1.79;61.00
7200;BME280;3641;49.082;8.200;2023-03-01T09:23:33;101011.16;;;1.81;61.14
7200;BME280;3641;49.082;8.200;2023-03-01T09:26:01;101011.28;;;1.80;61.35
7200;BME280;3641;49.082;8.200;2023-03-01T09:28:28;101008.13;;;1.86;60.39
7200;BME280;3641;49.082;8.200;2023-03-01T09:30:58;101010.66;;;2.00;60.34
7200;BME280;3641;49.082;8.200;2023-03-01T09:33:24;101010.34;;;2.05;60.56
7200;BME280;3641;49.082;8.200;2023-03-01T09:35:56;101007.06;;;2.13;60.18
7200;BME280;3641;49.082;8.200;2023-03-01T09:38:24;101004.78;;;2.20;59.91
7200;BME280;3641;49.082;8.200;2023-03-01T09:40:51;101009.75;;;2.13;60.22
7200;BME280;3641;49.082;8.200;2023-03-01T09:43:21;101000.34;;;2.18;60.11
7200;BME280;3641;49.082;8.200;2023-03-01T09:45:50;101001.00;;;2.22;59.92
7200;BME280;3641;49.082;8.200;2023-03-01T09:48:22;101003.31;;;2.15;59.77
7200;BME280;3641;49.082;8.200;2023-03-01T09:50:50;101004.09;;;2.29;59.28
7200;BME280;3641;49.082;8.200;2023-03-01T09:53:19;101000.13;;;2.46;59.67
7200;BME280;3641;49.082;8.200;2023-03-01T09:55:50;100998.50;;;2.43;59.13
7200;BME280;3641;49.082;8.200;2023-03-01T09:58:29;100997.16;;;2.49;59.43
7200;BME280;3641;49.082;8.200;2023-03-01T10:01:01;100985.72;;;2.69;58.61
7200;BME280;3641;49.082;8.200;2023-03-01T10:03:34;100979.75;;;2.88;57.89
7200;BME280;3641;49.082;8.200;2023-03-01T10:06:08;100978.50;;;5.01;54.17
7200;BME280;3641;49.082;8.200;2023-03-01T10:08:40;100968.38;;;7.77;47.63
7200;BME280;3641;49.082;8.200;2023-03-01T10:11:19;100959.31;;;8.50;45.10
7200;BME280;3641;49.082;8.200;2023-03-01T10:13:51;100956.50;;;8.42;51.45
7200;BME280;3641;49.082;8.200;2023-03-01T10:16:23;100955.88;;;8.30;51.81
7200;BME280;3641;49.082;8.200;2023-03-01T10:18:56;100958.19;;;7.89;45.96
7200;BME280;3641;49.082;8.200;2023-03-01T10:21:26;100947.16;;;7.35;56.37
7200;BME280;3641;49.082;8.200;2023-03-01T10:23:53;100953.63;;;6.77;48.66
7200;BME280;3641;49.082;8.200;2023-03-01T10:26:39;100950.47;;;6.71;51.77
7200;BME280;3641;49.082;8.200;2023-03-01T10:29:10;100946.06;;;6.51;50.51
7200;BME280;3641;49.082;8.200;2023-03-01T10:31:41;100952.53;;;6.50;54.95
7200;BME280;3641;49.082;8.200;2023-03-01T10:34:14;100938.84;;;6.32;54.60
7200;BME280;3641;49.082;8.200;2023-03-01T10:36:42;100937.75;;;5.84;52.21
7200;BME280;3641;49.082;8.200;2023-03-01T10:39:14;100931.28;;;6.16;54.71
7200;BME280;3641;49.082;8.200;2023-03-01T10:41:56;100928.53;;;5.96;53.12
7200;BME280;3641;49.082;8.200;2023-03-01T10:44:42;100925.34;;;5.81;52.26
7200;BME280;3641;49.082;8.200;2023-03-01T10:47:18;100931.75;;;5.80;51.66
7200;BME280;3641;49.082;8.200;2023-03-01T10:49:58;100931.47;;;5.93;54.73
7200;BME280;3641;49.082;8.200;2023-03-01T10:52:27;100926.19;;;5.82;51.89
7200;BME280;3641;49.082;8.200;2023-03-01T10:54:56;100914.78;;;5.88;54.51
7200;BME280;3641;49.082;8.200;2023-03-01T10:57:36;100918.66;;;5.95;53.57
7200;BME280;3641;49.082;8.200;2023-03-01T11:00:22;100911.81;;;5.91;53.42
7200;BME280;3641;49.082;8.200;2023-03-01T11:02:51;100913.53;;;5.82;51.82
7200;BME280;3641;49.082;8.200;2023-03-01T11:05:28;100898.25;;;5.81;53.23
7200;BME280;3641;49.082;8.200;2023-03-01T11:07:56;100892.00;;;5.81;53.11
7200;BME280;3641;49.082;8.200;2023-03-01T11:10:27;100896.13;;;5.95;51.95
7200;BME280;3641;49.082;8.200;2023-03-01T11:13:05;100879.16;;;5.83;53.27
7200;BME280;3641;49.082;8.200;2023-03-01T11:15:33;100876.00;;;5.78;53.53
7200;BME280;3641;49.082;8.200;2023-03-01T11:17:59;100886.00;;;5.87;53.40
7200;BME280;3641;49.082;8.200;2023-03-01T11:20:29;100877.88;;;5.87;52.97
7200;BME280;3641;49.082;8.200;2023-03-01T11:22:59;100877.63;;;6.10;49.21
7200;BME280;3641;49.082;8.200;2023-03-01T11:25:29;100870.34;;;6.00;51.28
7200;BME280;3641;49.082;8.200;2023-03-01T11:27:59;100865.75;;;5.81;50.12
7200;BME280;3641;49.082;8.200;2023-03-01T11:30:31;100867.06;;;5.97;53.14
7200;BME280;3641;49.082;8.200;2023-03-01T11:33:10;100870.34;;;6.00;50.97
7200;BME280;3641;49.082;8.200;2023-03-01T11:35:42;100857.78;;;6.19;50.44
7200;BME280;3641;49.082;8.200;2023-03-01T11:38:17;100853.66;;;6.05;52.38
7200;BME280;3641;49.082;8.200;2023-03-01T11:40:49;100841.25;;;6.03;51.89
7200;BME280;3641;49.082;8.200;2023-03-01T11:43:25;100840.53;;;6.10;52.49
7200;BME280;3641;49.082;8.200;2023-03-01T11:46:13;100840.38;;;6.22;51.89
7200;BME280;3641;49.082;8.200;2023-03-01T11:49:00;100841.81;;;6.16;50.42
7200;BME280;3641;49.082;8.200;2023-03-01T11:51:41;100814.44;;;6.19;52.49
7200;BME280;3641;49.082;8.200;2023-03-01T11:54:19;100819.53;;;6.22;51.48
7200;BME280;3641;49.082;8.200;2023-03-01T11:56:54;100811.41;;;6.32;51.80
7200;BME280;3641;49.082;8.200;2023-03-01T11:59:53;100810.09;;;6.36;50.40
7200;BME280;3641;49.082;8.200;2023-03-01T12:02:51;100804.41;;;6.29;51.07
7200;BME280;3641;49.082;8.200;2023-03-01T12:05:46;100794.38;;;6.40;49.83
7200;BME280;3641;49.082;8.200;2023-03-01T12:08:18;100796.78;;;6.43;50.27
7200;BME280;3641;49.082;8.200;2023-03-01T12:10:52;100794.53;;;6.48;52.53
7200;BME280;3641;49.082;8.200;2023-03-01T12:13:45;100795.91;;;6.52;51.11
7200;BME280;3641;49.082;8.200;2023-03-01T12:16:23;100780.34;;;6.54;52.20
7200;BME280;3641;49.082;8.200;2023-03-01T12:19:04;100783.19;;;6.52;52.11
7200;BME280;3641;49.082;8.200;2023-03-01T12:21:41;100772.94;;;6.56;51.57
7200;BME280;3641;49.082;8.200;2023-03-01T12:24:29;100774.63;;;6.57;51.15
7200;BME280;3641;49.082;8.200;2023-03-01T12:27:14;100779.97;;;6.77;51.39
7200;BME280;3641;49.082;8.200;2023-03-01T12:29:49;100770.63;;;6.61;50.40
7200;BME280;3641;49.082;8.200;2023-03-01T12:32:42;100767.72;;;6.72;51.79
7200;BME280;3641;49.082;8.200;2023-03-01T12:35:27;100767.16;;;6.69;51.32
7200;BME280;3641;49.082;8.200;2023-03-01T12:38:07;100762.44;;;6.71;51.04
7200;BME280;3641;49.082;8.200;2023-03-01T12:41:01;100761.28;;;6.73;50.41
7200;BME280;3641;49.082;8.200;2023-03-01T12:43:43;100757.41;;;6.76;49.21
7200;BME280;3641;49.082;8.200;2023-03-01T12:46:25;100750.84;;;6.79;50.48
7200;BME280;3641;49.082;8.200;2023-03-01T12:49:03;100740.69;;;6.81;50.57
7200;BME280;3641;49.082;8.200;2023-03-01T12:51:34;100726.44;;;6.97;49.63
7200;BME280;3641;49.082;8.200;2023-03-01T12:54:05;100731.03;;;6.96;51.08
7200;BME280;3641;49.082;8.200;2023-03-01T12:56:37;100731.19;;;6.95;51.52
7200;BME280;3641;49.082;8.200;2023-03-01T12:59:11;100729.31;;;6.95;50.58
7200;BME280;3641;49.082;8.200;2023-03-01T13:01:45;100718.75;;;6.92;49.71
7200;BME280;3641;49.082;8.200;2023-03-01T13:04:29;100721.31;;;6.94;50.22
7200;BME280;3641;49.082;8.200;2023-03-01T13:07:05;100715.97;;;7.02;50.84
7200;BME280;3641;49.082;8.200;2023-03-01T13:09:40;100707.84;;;7.02;49.05
7200;BME280;3641;49.082;8.200;2023-03-01T13:15:31;100705.06;;;7.12;49.58
7200;BME280;3641;49.082;8.200;2023-03-01T13:17:58;100693.34;;;7.11;49.88
7200;BME280;3641;49.082;8.200;2023-03-01T13:20:30;100700.66;;;7.11;50.16
7200;BME280;3641;49.082;8.200;2023-03-01T13:23:05;100696.59;;;7.15;50.13
7200;BME280;3641;49.082;8.200;2023-03-01T13:25:32;100684.13;;;7.22;49.44
7200;BME280;3641;49.082;8.200;2023-03-01T13:31:03;100688.47;;;7.33;49.93
7200;BME280;3641;49.082;8.200;2023-03-01T13:33:41;100672.34;;;7.31;49.45
7200;BME280;3641;49.082;8.200;2023-03-01T13:36:10;100679.22;;;7.25;48.40
7200;BME280;3641;49.082;8.200;2023-03-01T13:38:46;100661.94;;;7.26;48.33